CheckWX is a tool to help pilots better visualize weather data.  It is not intended as a substitute for an official pre-flight weather briefing.

13:46:46 UTC

KFLP METAR
Marion County Regional Airport
Flippin, Arkansas, USA
Current

33 mins ago

KFLP 311314Z AUTO 00000KT 10SM -RA SCT015 BKN032 OVC050 09/08 A3004 RMK AO2 P0001
Observed
Mar-31 @ 13:14 UTC
Visibility
10 SM
Flight Rules
VFR
Conditions
Light Rain
Cloud Levels
  • Scattered at 1,500' AGL
  • Broken at 3,200' AGL
  • Overcast at 5,000' AGL
Temperature
C / 48°F
Dewpoint
C / 46°F
Humidity
94%
Altimeter
30.04" Hg
Pressure
1017.32 hPa
Current Rain
0.01"
Previous

1 hour ago

KFLP 311245Z AUTO 35003KT 8SM -RA BKN013 OVC038 09/08 A3005 RMK AO2 P0005
Observed
Mar-31 @ 12:45 UTC
Wind
  • 350° at 3 KTS
Visibility
8 SM
Flight Rules
MVFR
Conditions
Light Rain
Cloud Levels
  • Broken at 1,300' AGL
  • Overcast at 3,800' AGL
Temperature
C / 48°F
Dewpoint
C / 46°F
Humidity
94%
Altimeter
30.05" Hg
Pressure
1017.62 hPa
Current Rain
0.05"
Previous

2 hours ago

KFLP 311156Z AUTO 34003KT 10SM -RA BKN045 OVC060 09/08 A3002 RMK AO2 SLP164 P0004 60024 70060 T00890078 10100 20089 51023
Observed
Mar-31 @ 11:56 UTC
Wind
  • 340° at 3 KTS
Visibility
10 SM
Flight Rules
VFR
Conditions
Light Rain
Cloud Levels
  • Broken at 4,500' AGL
  • Overcast at 6,000' AGL
Temperature
C / 48°F
Dewpoint
C / 46°F
Humidity
94%
Altimeter
30.02" Hg
Pressure
1016.62 hPa
Current Rain
0.04"
24 Hour Rain
0.6"